sensor_id;sensor_type;location;lat;lon;timestamp;temperature;humidity
16814;DHT22;8524;57.650;11.926;2023-03-04T00:02:23;3.80;99.90
16814;DHT22;8524;57.650;11.926;2023-03-04T00:04:50;3.70;99.90
16814;DHT22;8524;57.650;11.926;2023-03-04T00:07:17;3.60;99.90
16814;DHT22;8524;57.650;11.926;2023-03-04T00:09:45;3.50;99.90
16814;DHT22;8524;57.650;11.926;2023-03-04T00:12:12;3.50;99.90
16814;DHT22;8524;57.650;11.926;2023-03-04T00:14:39;3.50;99.90
16814;DHT22;8524;57.650;11.926;2023-03-04T00:17:06;3.50;99.90
16814;DHT22;8524;57.650;11.926;2023-03-04T00:19:35;3.50;99.90
16814;DHT22;8524;57.650;11.926;2023-03-04T00:22:02;3.60;99.90
16814;DHT22;8524;57.650;11.926;2023-03-04T00:24:30;3.60;99.90
16814;DHT22;8524;57.650;11.926;2023-03-04T00:26:57;3.60;99.90
16814;DHT22;8524;57.650;11.926;2023-03-04T00:29:24;3.60;99.90
16814;DHT22;8524;57.650;11.926;2023-03-04T00:31:51;3.70;99.90
16814;DHT22;8524;57.650;11.926;2023-03-04T00:34:18;3.70;99.90
16814;DHT22;8524;57.650;11.926;2023-03-04T00:36:47;3.70;99.90
16814;DHT22;8524;57.650;11.926;2023-03-04T00:39:14;3.60;99.90
16814;DHT22;8524;57.650;11.926;2023-03-04T00:41:42;3.60;99.90
16814;DHT22;8524;57.650;11.926;2023-03-04T00:44:09;3.70;99.90
16814;DHT22;8524;57.650;11.926;2023-03-04T00:46:36;3.70;99.90
16814;DHT22;8524;57.650;11.926;2023-03-04T00:49:03;3.80;99.90
16814;DHT22;8524;57.650;11.926;2023-03-04T00:51:30;3.70;99.90
16814;DHT22;8524;57.650;11.926;2023-03-04T00:53:58;3.60;99.90
16814;DHT22;8524;57.650;11.926;2023-03-04T00:56:25;3.60;99.90
16814;DHT22;8524;57.650;11.926;2023-03-04T00:58:52;3.70;99.90
16814;DHT22;8524;57.650;11.926;2023-03-04T01:01:20;3.60;99.90
16814;DHT22;8524;57.650;11.926;2023-03-04T01:03:47;3.60;99.90
16814;DHT22;8524;57.650;11.926;2023-03-04T01:06:14;3.50;99.90
16814;DHT22;8524;57.650;11.926;2023-03-04T01:08:41;3.50;99.90
16814;DHT22;8524;57.650;11.926;2023-03-04T01:11:10;3.50;99.90
16814;DHT22;8524;57.650;11.926;2023-03-04T01:13:37;3.40;99.90
16814;DHT22;8524;57.650;11.926;2023-03-04T01:16:05;3.50;99.90
16814;DHT22;8524;57.650;11.926;2023-03-04T01:18:33;3.50;99.90
16814;DHT22;8524;57.650;11.926;2023-03-04T01:21:00;3.50;99.90
16814;DHT22;8524;57.650;11.926;2023-03-04T01:23:27;3.40;99.90
16814;DHT22;8524;57.650;11.926;2023-03-04T01:25:54;3.30;99.90
16814;DHT22;8524;57.650;11.926;2023-03-04T01:28:22;3.20;99.90
16814;DHT22;8524;57.650;11.926;2023-03-04T01:30:49;3.10;99.90
16814;DHT22;8524;57.650;11.926;2023-03-04T01:33:16;3.10;99.90
16814;DHT22;8524;57.650;11.926;2023-03-04T01:35:43;3.00;99.90
16814;DHT22;8524;57.650;11.926;2023-03-04T01:38:10;2.90;99.90
16814;DHT22;8524;57.650;11.926;2023-03-04T01:40:39;3.00;99.90
16814;DHT22;8524;57.650;11.926;2023-03-04T01:43:06;2.90;99.90
16814;DHT22;8524;57.650;11.926;2023-03-04T01:45:35;2.80;99.90
16814;DHT22;8524;57.650;11.926;2023-03-04T01:48:02;2.80;99.90
16814;DHT22;8524;57.650;11.926;2023-03-04T01:50:31;2.70;99.90
16814;DHT22;8524;57.650;11.926;2023-03-04T01:53:00;2.60;99.90
16814;DHT22;8524;57.650;11.926;2023-03-04T01:55:28;2.40;99.90
16814;DHT22;8524;57.650;11.926;2023-03-04T01:57:56;2.50;99.90
16814;DHT22;8524;57.650;11.926;2023-03-04T02:00:26;2.50;99.90
16814;DHT22;8524;57.650;11.926;2023-03-04T02:02:58;2.70;99.90
16814;DHT22;8524;57.650;11.926;2023-03-04T02:05:26;2.70;99.90
16814;DHT22;8524;57.650;11.926;2023-03-04T02:07:55;2.50;99.90
16814;DHT22;8524;57.650;11.926;2023-03-04T02:10:22;2.60;99.90
16814;DHT22;8524;57.650;11.926;2023-03-04T02:12:51;2.50;99.90
16814;DHT22;8524;57.650;11.926;2023-03-04T02:15:18;2.40;99.90
16814;DHT22;8524;57.650;11.926;2023-03-04T02:17:45;2.20;99.90
16814;DHT22;8524;57.650;11.926;2023-03-04T02:20:22;2.10;99.90
16814;DHT22;8524;57.650;11.926;2023-03-04T02:22:58;2.10;99.90
16814;DHT22;8524;57.650;11.926;2023-03-04T02:25:30;2.10;99.90
16814;DHT22;8524;57.650;11.926;2023-03-04T02:28:00;2.10;99.90
16814;DHT22;8524;57.650;11.926;2023-03-04T02:30:27;2.00;99.90
16814;DHT22;8524;57.650;11.926;2023-03-04T02:32:54;2.00;99.90
16814;DHT22;8524;57.650;11.926;2023-03-04T02:35:22;2.00;99.90
16814;DHT22;8524;57.650;11.926;2023-03-04T02:37:49;2.00;99.90
16814;DHT22;8524;57.650;11.926;2023-03-04T02:40:22;2.10;99.90
16814;DHT22;8524;57.650;11.926;2023-03-04T02:42:50;2.20;99.90
16814;DHT22;8524;57.650;11.926;2023-03-04T02:45:35;2.20;99.90
16814;DHT22;8524;57.650;11.926;2023-03-04T02:48:02;2.20;99.90
16814;DHT22;8524;57.650;11.926;2023-03-04T02:50:33;2.30;99.90
16814;DHT22;8524;57.650;11.926;2023-03-04T02:53:00;2.40;99.90
16814;DHT22;8524;57.650;11.926;2023-03-04T02:55:28;2.40;99.90
16814;DHT22;8524;57.650;11.926;2023-03-04T02:57:55;2.60;99.90
16814;DHT22;8524;57.650;11.926;2023-03-04T03:00:22;2.60;99.90
16814;DHT22;8524;57.650;11.926;2023-03-04T03:02:50;2.60;99.90
16814;DHT22;8524;57.650;11.926;2023-03-04T03:05:18;2.60;99.90
16814;DHT22;8524;57.650;11.926;2023-03-04T03:07:45;2.60;99.90
16814;DHT22;8524;57.650;11.926;2023-03-04T03:10:12;2.70;99.90
16814;DHT22;8524;57.650;11.926;2023-03-04T03:12:39;2.80;99.90
16814;DHT22;8524;57.650;11.926;2023-03-04T03:15:07;2.80;99.90
16814;DHT22;8524;57.650;11.926;2023-03-04T03:17:34;2.80;99.90
16814;DHT22;8524;57.650;11.926;2023-03-04T03:20:04;2.90;99.90
16814;DHT22;8524;57.650;11.926;2023-03-04T03:22:31;2.80;99.90
16814;DHT22;8524;57.650;11.926;2023-03-04T03:24:58;2.80;99.90
16814;DHT22;8524;57.650;11.926;2023-03-04T03:27:25;2.90;99.90
16814;DHT22;8524;57.650;11.926;2023-03-04T03:29:52;2.80;99.90
16814;DHT22;8524;57.650;11.926;2023-03-04T03:32:19;2.80;99.90
16814;DHT22;8524;57.650;11.926;2023-03-04T03:34:47;2.90;99.90
16814;DHT22;8524;57.650;11.926;2023-03-04T03:37:16;2.90;99.90
16814;DHT22;8524;57.650;11.926;2023-03-04T03:39:43;3.00;99.90
16814;DHT22;8524;57.650;11.926;2023-03-04T03:42:10;2.90;99.90
16814;DHT22;8524;57.650;11.926;2023-03-04T03:44:37;3.00;99.90
16814;DHT22;8524;57.650;11.926;2023-03-04T03:47:04;3.00;99.90
16814;DHT22;8524;57.650;11.926;2023-03-04T03:49:31;2.90;99.90
16814;DHT22;8524;57.650;11.926;2023-03-04T03:51:58;2.90;99.90
16814;DHT22;8524;57.650;11.926;2023-03-04T03:54:27;3.00;99.90
16814;DHT22;8524;57.650;11.926;2023-03-04T03:56:54;3.00;99.90
16814;DHT22;8524;57.650;11.926;2023-03-04T03:59:21;2.90;99.90
16814;DHT22;8524;57.650;11.926;2023-03-04T04:01:49;2.80;99.90
16814;DHT22;8524;57.650;11.926;2023-03-04T04:04:16;2.70;99.90
16814;DHT22;8524;57.650;11.926;2023-03-04T04:06:43;2.60;99.90
16814;DHT22;8524;57.650;11.926;2023-03-04T04:09:10;2.40;99.90
16814;DHT22;8524;57.650;11.926;2023-03-04T04:11:39;2.40;99.90
16814;DHT22;8524;57.650;11.926;2023-03-04T04:14:07;2.20;99.90
16814;DHT22;8524;57.650;11.926;2023-03-04T04:16:34;2.20;99.90
16814;DHT22;8524;57.650;11.926;2023-03-04T04:19:02;2.20;99.90
16814;DHT22;8524;57.650;11.926;2023-03-04T04:21:29;2.20;99.90
16814;DHT22;8524;57.650;11.926;2023-03-04T04:23:56;2.10;99.90
16814;DHT22;8524;57.650;11.926;2023-03-04T04:26:23;2.20;99.90
16814;DHT22;8524;57.650;11.926;2023-03-04T04:28:51;2.10;99.90
16814;DHT22;8524;57.650;11.926;2023-03-04T04:31:18;1.90;99.90
16814;DHT22;8524;57.650;11.926;2023-03-04T04:33:45;2.00;99.90
16814;DHT22;8524;57.650;11.926;2023-03-04T04:36:14;2.00;99.90
16814;DHT22;8524;57.650;11.926;2023-03-04T04:38:41;2.00;99.90
16814;DHT22;8524;57.650;11.926;2023-03-04T04:41:18;2.00;99.90
16814;DHT22;8524;57.650;11.926;2023-03-04T04:43:46;2.10;99.90
16814;DHT22;8524;57.650;11.926;2023-03-04T04:46:15;2.10;99.90
16814;DHT22;8524;57.650;11.926;2023-03-04T04:48:43;2.10;99.90
16814;DHT22;8524;57.650;11.926;2023-03-04T04:51:11;2.10;99.90
16814;DHT22;8524;57.650;11.926;2023-03-04T04:53:38;2.10;99.90
16814;DHT22;8524;57.650;11.926;2023-03-04T04:56:10;2.10;99.90
16814;DHT22;8524;57.650;11.926;2023-03-04T04:58:37;2.00;99.90
16814;DHT22;8524;57.650;11.926;2023-03-04T05:01:05;2.00;99.90
16814;DHT22;8524;57.650;11.926;2023-03-04T05:03:35;1.90;99.90
16814;DHT22;8524;57.650;11.926;2023-03-04T05:06:04;2.10;99.90
16814;DHT22;8524;57.650;11.926;2023-03-04T05:08:32;2.00;99.90
16814;DHT22;8524;57.650;11.926;2023-03-04T05:10:59;2.00;99.90
16814;DHT22;8524;57.650;11.926;2023-03-04T05:13:26;2.00;99.90
16814;DHT22;8524;57.650;11.926;2023-03-04T05:15:54;2.10;99.90
16814;DHT22;8524;57.650;11.926;2023-03-04T05:18:23;2.10;99.90
16814;DHT22;8524;57.650;11.926;2023-03-04T05:20:54;1.90;99.90
16814;DHT22;8524;57.650;11.926;2023-03-04T05:23:22;1.80;99.90
16814;DHT22;8524;57.650;11.926;2023-03-04T05:25:49;1.80;99.90
16814;DHT22;8524;57.650;11.926;2023-03-04T05:28:17;1.70;99.90
16814;DHT22;8524;57.650;11.926;2023-03-04T05:30:45;1.70;99.90
16814;DHT22;8524;57.650;11.926;2023-03-04T05:33:14;1.70;99.90
16814;DHT22;8524;57.650;11.926;2023-03-04T05:35:43;1.70;99.90
16814;DHT22;8524;57.650;11.926;2023-03-04T05:38:13;1.50;99.90
16814;DHT22;8524;57.650;11.926;2023-03-04T05:40:41;1.50;99.90
16814;DHT22;8524;57.650;11.926;2023-03-04T05:43:08;1.50;99.90
16814;DHT22;8524;57.650;11.926;2023-03-04T05:45:36;1.60;99.90
16814;DHT22;8524;57.650;11.926;2023-03-04T05:48:03;1.50;99.90
16814;DHT22;8524;57.650;11.926;2023-03-04T05:50:31;1.60;99.90
16814;DHT22;8524;57.650;11.926;2023-03-04T05:52:58;1.50;99.90
16814;DHT22;8524;57.650;11.926;2023-03-04T05:55:27;1.40;99.90
16814;DHT22;8524;57.650;11.926;2023-03-04T05:57:54;1.40;99.90
16814;DHT22;8524;57.650;11.926;2023-03-04T06:00:21;1.30;99.90
16814;DHT22;8524;57.650;11.926;2023-03-04T06:02:48;1.20;99.90
16814;DHT22;8524;57.650;11.926;2023-03-04T06:05:16;1.20;99.90
16814;DHT22;8524;57.650;11.926;2023-03-04T06:07:43;1.20;99.90
16814;DHT22;8524;57.650;11.926;2023-03-04T06:10:12;1.20;99.90
16814;DHT22;8524;57.650;11.926;2023-03-04T06:12:41;1.20;99.90
16814;DHT22;8524;57.650;11.926;2023-03-04T06:15:09;1.20;99.90
16814;DHT22;8524;57.650;11.926;2023-03-04T06:17:36;1.10;99.90
16814;DHT22;8524;57.650;11.926;2023-03-04T06:20:04;1.20;99.90
16814;DHT22;8524;57.650;11.926;2023-03-04T06:22:32;1.20;99.90
16814;DHT22;8524;57.650;11.926;2023-03-04T06:24:59;1.20;99.90
16814;DHT22;8524;57.650;11.926;2023-03-04T06:27:26;1.10;99.90
16814;DHT22;8524;57.650;11.926;2023-03-04T06:29:55;1.20;99.90
16814;DHT22;8524;57.650;11.926;2023-03-04T06:32:22;1.20;99.90
16814;DHT22;8524;57.650;11.926;2023-03-04T06:34:49;1.10;99.90
16814;DHT22;8524;57.650;11.926;2023-03-04T06:37:16;1.10;99.90
16814;DHT22;8524;57.650;11.926;2023-03-04T06:39:43;1.10;99.90
16814;DHT22;8524;57.650;11.926;2023-03-04T06:42:10;1.10;99.90
16814;DHT22;8524;57.650;11.926;2023-03-04T06:44:37;1.10;99.90
16814;DHT22;8524;57.650;11.926;2023-03-04T06:47:06;1.20;99.90
16814;DHT22;8524;57.650;11.926;2023-03-04T06:49:33;1.20;99.90
16814;DHT22;8524;57.650;11.926;2023-03-04T06:52:00;1.10;99.90
16814;DHT22;8524;57.650;11.926;2023-03-04T06:54:28;1.10;99.90
16814;DHT22;8524;57.650;11.926;2023-03-04T06:56:56;1.10;99.90
16814;DHT22;8524;57.650;11.926;2023-03-04T06:59:23;1.10;99.90
16814;DHT22;8524;57.650;11.926;2023-03-04T07:01:50;1.20;99.90
16814;DHT22;8524;57.650;11.926;2023-03-04T07:04:18;1.40;99.90
16814;DHT22;8524;57.650;11.926;2023-03-04T07:06:47;1.40;99.90
16814;DHT22;8524;57.650;11.926;2023-03-04T07:09:14;1.40;99.90
16814;DHT22;8524;57.650;11.926;2023-03-04T07:11:41;1.60;99.90
16814;DHT22;8524;57.650;11.926;2023-03-04T07:14:08;1.60;99.90
16814;DHT22;8524;57.650;11.926;2023-03-04T07:16:36;1.60;99.90
16814;DHT22;8524;57.650;11.926;2023-03-04T07:19:03;1.70;99.90
16814;DHT22;8524;57.650;11.926;2023-03-04T07:21:32;1.80;99.90
16814;DHT22;8524;57.650;11.926;2023-03-04T07:23:59;1.90;99.90
16814;DHT22;8524;57.650;11.926;2023-03-04T07:26:26;1.90;99.00
16814;DHT22;8524;57.650;11.926;2023-03-04T07:28:53;2.10;97.90
16814;DHT22;8524;57.650;11.926;2023-03-04T07:31:24;2.20;96.70
16814;DHT22;8524;57.650;11.926;2023-03-04T07:33:54;2.20;96.30
16814;DHT22;8524;57.650;11.926;2023-03-04T07:36:22;2.20;96.50
16814;DHT22;8524;57.650;11.926;2023-03-04T07:38:50;2.20;96.90
16814;DHT22;8524;57.650;11.926;2023-03-04T07:41:19;2.30;96.90
16814;DHT22;8524;57.650;11.926;2023-03-04T07:43:47;2.20;95.20
16814;DHT22;8524;57.650;11.926;2023-03-04T07:46:14;2.40;94.80
16814;DHT22;8524;57.650;11.926;2023-03-04T07:48:42;2.40;93.20
16814;DHT22;8524;57.650;11.926;2023-03-04T07:51:11;2.50;91.30
16814;DHT22;8524;57.650;11.926;2023-03-04T07:53:40;2.50;89.30
16814;DHT22;8524;57.650;11.926;2023-03-04T07:56:11;2.60;90.70
16814;DHT22;8524;57.650;11.926;2023-03-04T07:58:38;2.70;84.70
16814;DHT22;8524;57.650;11.926;2023-03-04T08:01:09;2.80;79.40
16814;DHT22;8524;57.650;11.926;2023-03-04T08:03:37;2.80;83.50
16814;DHT22;8524;57.650;11.926;2023-03-04T08:06:05;2.80;78.30
16814;DHT22;8524;57.650;11.926;2023-03-04T08:08:32;2.80;78.60
16814;DHT22;8524;57.650;11.926;2023-03-04T08:10:59;2.80;80.00
16814;DHT22;8524;57.650;11.926;2023-03-04T08:13:30;2.90;79.00
16814;DHT22;8524;57.650;11.926;2023-03-04T08:15:57;3.00;77.10
16814;DHT22;8524;57.650;11.926;2023-03-04T08:18:25;3.00;74.10
16814;DHT22;8524;57.650;11.926;2023-03-04T08:20:52;3.10;68.50
16814;DHT22;8524;57.650;11.926;2023-03-04T08:23:19;3.00;66.20
16814;DHT22;8524;57.650;11.926;2023-03-04T08:25:47;3.00;67.20
16814;DHT22;8524;57.650;11.926;2023-03-04T08:28:14;2.90;72.90
16814;DHT22;8524;57.650;11.926;2023-03-04T08:30:43;2.90;73.30
16814;DHT22;8524;57.650;11.926;2023-03-04T08:33:10;3.00;70.40
16814;DHT22;8524;57.650;11.926;2023-03-04T08:35:37;3.00;75.70
16814;DHT22;8524;57.650;11.926;2023-03-04T08:38:04;2.90;79.40
16814;DHT22;8524;57.650;11.926;2023-03-04T08:40:32;3.00;79.90
16814;DHT22;8524;57.650;11.926;2023-03-04T08:42:59;3.00;78.60
16814;DHT22;8524;57.650;11.926;2023-03-04T08:45:26;2.90;80.50
16814;DHT22;8524;57.650;11.926;2023-03-04T08:47:55;3.00;80.60
16814;DHT22;8524;57.650;11.926;2023-03-04T08:50:22;3.00;82.00
16814;DHT22;8524;57.650;11.926;2023-03-04T08:52:49;3.20;80.60
16814;DHT22;8524;57.650;11.926;2023-03-04T08:55:16;3.20;84.00
16814;DHT22;8524;57.650;11.926;2023-03-04T08:57:43;3.20;80.00
16814;DHT22;8524;57.650;11.926;2023-03-04T09:00:11;3.20;78.10
16814;DHT22;8524;57.650;11.926;2023-03-04T09:02:39;3.20;74.80
16814;DHT22;8524;57.650;11.926;2023-03-04T09:05:08;3.10;76.90
16814;DHT22;8524;57.650;11.926;2023-03-04T09:07:35;3.20;78.80
16814;DHT22;8524;57.650;11.926;2023-03-04T09:10:03;3.20;74.80
16814;DHT22;8524;57.650;11.926;2023-03-04T09:12:30;3.30;76.80
16814;DHT22;8524;57.650;11.926;2023-03-04T09:14:57;3.30;71.30
16814;DHT22;8524;57.650;11.926;2023-03-04T09:17:24;3.30;75.90
16814;DHT22;8524;57.650;11.926;2023-03-04T09:19:51;3.40;77.40
16814;DHT22;8524;57.650;11.926;2023-03-04T09:22:19;3.40;77.80
16814;DHT22;8524;57.650;11.926;2023-03-04T09:24:46;3.50;78.30
16814;DHT22;8524;57.650;11.926;2023-03-04T09:27:13;3.50;71.30
16814;DHT22;8524;57.650;11.926;2023-03-04T09:29:40;3.50;72.70
16814;DHT22;8524;57.650;11.926;2023-03-04T09:32:09;3.60;72.20
16814;DHT22;8524;57.650;11.926;2023-03-04T09:34:36;3.70;67.00
16814;DHT22;8524;57.650;11.926;2023-03-04T09:37:03;3.60;65.00
16814;DHT22;8524;57.650;11.926;2023-03-04T09:39:31;3.60;66.70
16814;DHT22;8524;57.650;11.926;2023-03-04T09:41:59;3.70;71.90
16814;DHT22;8524;57.650;11.926;2023-03-04T09:44:29;3.70;58.00
16814;DHT22;8524;57.650;11.926;2023-03-04T09:47:01;3.60;61.60
16814;DHT22;8524;57.650;11.926;2023-03-04T09:49:29;3.70;59.40
16814;DHT22;8524;57.650;11.926;2023-03-04T09:52:02;3.60;59.20
16814;DHT22;8524;57.650;11.926;2023-03-04T09:54:57;3.70;60.90
16814;DHT22;8524;57.650;11.926;2023-03-04T09:57:41;3.80;52.00
16814;DHT22;8524;57.650;11.926;2023-03-04T10:00:13;3.80;53.70
16814;DHT22;8524;57.650;11.926;2023-03-04T10:03:03;3.70;54.00
16814;DHT22;8524;57.650;11.926;2023-03-04T10:05:32;3.90;50.70
16814;DHT22;8524;57.650;11.926;2023-03-04T10:08:09;4.00;58.00
16814;DHT22;8524;57.650;11.926;2023-03-04T10:10:40;4.00;49.40
16814;DHT22;8524;57.650;11.926;2023-03-04T10:13:13;4.00;49.80
16814;DHT22;8524;57.650;11.926;2023-03-04T10:15:43;3.90;50.20
16814;DHT22;8524;57.650;11.926;2023-03-04T10:18:17;3.80;46.70
16814;DHT22;8524;57.650;11.926;2023-03-04T10:20:52;3.90;52.50
16814;DHT22;8524;57.650;11.926;2023-03-04T10:23:22;4.00;45.70
16814;DHT22;8524;57.650;11.926;2023-03-04T10:25:52;4.00;45.00
16814;DHT22;8524;57.650;11.926;2023-03-04T10:28:23;4.00;43.10
16814;DHT22;8524;57.650;11.926;2023-03-04T10:30:56;4.10;49.60
16814;DHT22;8524;57.650;11.926;2023-03-04T10:33:26;4.10;46.80
16814;DHT22;8524;57.650;11.926;2023-03-04T10:35:59;4.10;48.70
16814;DHT22;8524;57.650;11.926;2023-03-04T10:38:30;3.90;43.50
16814;DHT22;8524;57.650;11.926;2023-03-04T10:41:00;4.00;53.80
16814;DHT22;8524;57.650;11.926;2023-03-04T10:43:28;4.10;47.30
16814;DHT22;8524;57.650;11.926;2023-03-04T10:45:57;4.10;53.80
16814;DHT22;8524;57.650;11.926;2023-03-04T10:48:27;4.10;46.70
16814;DHT22;8524;57.650;11.926;2023-03-04T10:51:10;4.10;55.30
16814;DHT22;8524;57.650;11.926;2023-03-04T10:53:40;4.20;54.90
16814;DHT22;8524;57.650;11.926;2023-03-04T10:59:30;4.40;64.10
16814;DHT22;8524;57.650;11.926;2023-03-04T11:01:58;4.50;51.10
16814;DHT22;8524;57.650;11.926;2023-03-04T11:04:26;4.50;48.90
16814;DHT22;8524;57.650;11.926;2023-03-04T11:06:53;4.20;44.90
16814;DHT22;8524;57.650;11.926;2023-03-04T11:09:22;4.30;53.40
16814;DHT22;8524;57.650;11.926;2023-03-04T11:11:50;4.40;52.00
16814;DHT22;8524;57.650;11.926;2023-03-04T11:14:21;4.30;54.10
16814;DHT22;8524;57.650;11.926;2023-03-04T11:16:56;4.40;48.20
16814;DHT22;8524;57.650;11.926;2023-03-04T11:19:27;4.40;37.40
16814;DHT22;8524;57.650;11.926;2023-03-04T11:21:56;4.40;38.10
16814;DHT22;8524;57.650;11.926;2023-03-04T11:24:26;4.40;43.00
16814;DHT22;8524;57.650;11.926;2023-03-04T11:26:58;4.40;48.90
16814;DHT22;8524;57.650;11.926;2023-03-04T11:29:30;4.40;48.80
16814;DHT22;8524;57.650;11.926;2023-03-04T11:32:07;4.50;47.30
16814;DHT22;8524;57.650;11.926;2023-03-04T11:34:40;4.50;42.80
16814;DHT22;8524;57.650;11.926;2023-03-04T11:37:13;4.50;45.40
16814;DHT22;8524;57.650;11.926;2023-03-04T11:39:45;4.50;34.80
16814;DHT22;8524;57.650;11.926;2023-03-04T11:42:30;4.50;41.90
16814;DHT22;8524;57.650;11.926;2023-03-04T11:44:59;4.60;38.40
16814;DHT22;8524;57.650;11.926;2023-03-04T11:47:46;4.30;35.30
16814;DHT22;8524;57.650;11.926;2023-03-04T11:50:27;4.50;49.20
16814;DHT22;8524;57.650;11.926;2023-03-04T12:01:58;4.50;31.40
16814;DHT22;8524;57.650;11.926;2023-03-04T12:07:42;4.10;38.40
16814;DHT22;8524;57.650;11.926;2023-03-04T12:10:20;4.20;34.80
16814;DHT22;8524;57.650;11.926;2023-03-04T12:15:49;4.20;37.00
16814;DHT22;8524;57.650;11.926;2023-03-04T12:18:34;4.40;45.70
16814;DHT22;8524;57.650;11.926;2023-03-04T12:21:19;4.50;47.20
16814;DHT22;8524;57.650;11.926;2023-03-04T12:24:17;4.70;55.10
16814;DHT22;8524;57.650;11.926;2023-03-04T12:26:50;4.70;41.50
16814;DHT22;8524;57.650;11.926;2023-03-04T12:29:26;4.90;41.20
16814;DHT22;8524;57.650;11.926;2023-03-04T12:31:59;4.90;42.20
16814;DHT22;8524;57.650;11.926;2023-03-04T12:37:55;4.90;49.40
16814;DHT22;8524;57.650;11.926;2023-03-04T12:40:37;4.90;36.50
16814;DHT22;8524;57.650;11.926;2023-03-04T12:43:28;4.90;32.60
16814;DHT22;8524;57.650;11.926;2023-03-04T12:46:03;4.60;42.50
16814;DHT22;8524;57.650;11.926;2023-03-04T12:48:35;4.70;40.90
16814;DHT22;8524;57.650;11.926;2023-03-04T12:51:16;4.80;46.30
16814;DHT22;8524;57.650;11.926;2023-03-04T12:53:59;4.90;28.40
16814;DHT22;8524;57.650;11.926;2023-03-04T12:56:35;4.80;36.70
16814;DHT22;8524;57.650;11.926;2023-03-04T12:59:02;4.80;36.30
16814;DHT22;8524;57.650;11.926;2023-03-04T13:01:35;4.70;33.90
16814;DHT22;8524;57.650;11.926;2023-03-04T13:04:09;4.70;43.10
16814;DHT22;8524;57.650;11.926;2023-03-04T13:06:42;4.80;42.20
16814;DHT22;8524;57.650;11.926;2023-03-04T13:09:18;4.80;31.70
16814;DHT22;8524;57.650;11.926;2023-03-04T13:11:54;4.80;28.10
16814;DHT22;8524;57.650;11.926;2023-03-04T13:14:30;4.80;35.10
16814;DHT22;8524;57.650;11.926;2023-03-04T13:16:59;4.80;31.60
16814;DHT22;8524;57.650;11.926;2023-03-04T13:19:48;4.70;31.90
16814;DHT22;8524;57.650;11.926;2023-03-04T13:22:34;4.60;27.00
16814;DHT22;8524;57.650;11.926;2023-03-04T13:25:28;4.60;30.30
16814;DHT22;8524;57.650;11.926;2023-03-04T13:28:20;4.40;45.00
16814;DHT22;8524;57.650;11.926;2023-03-04T13:31:15;4.40;78.60
16814;DHT22;8524;57.650;11.926;2023-03-04T13:34:00;4.40;89.10
16814;DHT22;8524;57.650;11.926;2023-03-04T13:36:33;4.30;89.30
16814;DHT22;8524;57.650;11.926;2023-03-04T13:39:03;4.30;88.40
16814;DHT22;8524;57.650;11.926;2023-03-04T13:41:49;4.30;88.80
16814;DHT22;8524;57.650;11.926;2023-03-04T13:44:56;4.20;89.10
16814;DHT22;8524;57.650;11.926;2023-03-04T13:47:38;4.10;91.00
16814;DHT22;8524;57.650;11.926;2023-03-04T13:50:40;3.90;92.00
16814;DHT22;8524;57.650;11.926;2023-03-04T13:53:32;3.90;92.00
16814;DHT22;8524;57.650;11.926;2023-03-04T13:59:21;3.80;91.90
16814;DHT22;8524;57.650;11.926;2023-03-04T14:01:54;3.90;90.50
16814;DHT22;8524;57.650;11.926;2023-03-04T14:04:25;3.90;91.80
16814;DHT22;8524;57.650;11.926;2023-03-04T14:06:54;3.90;91.50
16814;DHT22;8524;57.650;11.926;2023-03-04T14:09:24;3.90;92.80
16814;DHT22;8524;57.650;11.926;2023-03-04T14:11:54;3.90;93.60
16814;DHT22;8524;57.650;11.926;2023-03-04T14:14:25;3.90;94.90
16814;DHT22;8524;57.650;11.926;2023-03-04T14:16:55;4.00;94.90
16814;DHT22;8524;57.650;11.926;2023-03-04T14:19:25;4.00;92.70
16814;DHT22;8524;57.650;11.926;2023-03-04T14:21:53;3.90;91.00
16814;DHT22;8524;57.650;11.926;2023-03-04T14:24:21;3.90;88.60
16814;DHT22;8524;57.650;11.926;2023-03-04T14:26:49;3.90;89.60
16814;DHT22;8524;57.650;11.926;2023-03-04T14:29:30;3.90;90.60
16814;DHT22;8524;57.650;11.926;2023-03-04T14:31:57;3.90;90.00
16814;DHT22;8524;57.650;11.926;2023-03-04T14:34:29;3.90;90.70
16814;DHT22;8524;57.650;11.926;2023-03-04T14:36:58;3.90;84.20
16814;DHT22;8524;57.650;11.926;2023-03-04T14:39:29;3.80;87.20
16814;DHT22;8524;57.650;11.926;2023-03-04T14:42:03;3.80;88.50
16814;DHT22;8524;57.650;11.926;2023-03-04T14:44:37;3.80;86.10
16814;DHT22;8524;57.650;11.926;2023-03-04T14:47:11;3.80;83.20
16814;DHT22;8524;57.650;11.926;2023-03-04T14:49:42;3.80;84.60
16814;DHT22;8524;57.650;11.926;2023-03-04T14:52:29;3.70;86.00
16814;DHT22;8524;57.650;11.926;2023-03-04T14:55:14;3.70;85.10
16814;DHT22;8524;57.650;11.926;2023-03-04T14:57:43;3.70;85.90
16814;DHT22;8524;57.650;11.926;2023-03-04T15:00:16;3.60;86.80
16814;DHT22;8524;57.650;11.926;2023-03-04T15:02:50;3.70;87.20
16814;DHT22;8524;57.650;11.926;2023-03-04T15:05:20;3.60;88.00
16814;DHT22;8524;57.650;11.926;2023-03-04T15:07:51;3.60;88.80
16814;DHT22;8524;57.650;11.926;2023-03-04T15:10:22;3.60;89.30
16814;DHT22;8524;57.650;11.926;2023-03-04T15:12:53;3.70;88.80
16814;DHT22;8524;57.650;11.926;2023-03-04T15:15:42;3.70;86.00
16814;DHT22;8524;57.650;11.926;2023-03-04T15:18:20;3.70;82.80
16814;DHT22;8524;57.650;11.926;2023-03-04T15:20:53;3.70;83.20
16814;DHT22;8524;57.650;11.926;2023-03-04T15:23:20;3.60;82.30
16814;DHT22;8524;57.650;11.926;2023-03-04T15:25:50;3.60;77.90
16814;DHT22;8524;57.650;11.926;2023-03-04T15:28:18;3.50;83.90
16814;DHT22;8524;57.650;11.926;2023-03-04T15:30:47;3.60;81.30
16814;DHT22;8524;57.650;11.926;2023-03-04T15:33:14;3.50;78.70
16814;DHT22;8524;57.650;11.926;2023-03-04T15:35:49;3.50;74.60
16814;DHT22;8524;57.650;11.926;2023-03-04T15:38:18;3.40;77.60
16814;DHT22;8524;57.650;11.926;2023-03-04T15:40:45;3.40;76.60
16814;DHT22;8524;57.650;11.926;2023-03-04T15:43:15;3.30;79.20
16814;DHT22;8524;57.650;11.926;2023-03-04T15:45:42;3.20;78.30
16814;DHT22;8524;57.650;11.926;2023-03-04T15:48:12;3.30;77.80
16814;DHT22;8524;57.650;11.926;2023-03-04T15:50:42;3.20;80.10
16814;DHT22;8524;57.650;11.926;2023-03-04T15:53:14;3.20;80.70
16814;DHT22;8524;57.650;11.926;2023-03-04T15:55:44;3.20;79.60
16814;DHT22;8524;57.650;11.926;2023-03-04T15:58:12;3.20;78.80
16814;DHT22;8524;57.650;11.926;2023-03-04T16:00:39;3.10;80.00
16814;DHT22;8524;57.650;11.926;2023-03-04T16:03:13;3.10;79.80
16814;DHT22;8524;57.650;11.926;2023-03-04T16:05:41;3.10;79.80
16814;DHT22;8524;57.650;11.926;2023-03-04T16:08:11;3.10;83.10
16814;DHT22;8524;57.650;11.926;2023-03-04T16:10:39;3.00;84.30
16814;DHT22;8524;57.650;11.926;2023-03-04T16:13:12;3.00;87.20
16814;DHT22;8524;57.650;11.926;2023-03-04T16:15:40;2.90;87.10
16814;DHT22;8524;57.650;11.926;2023-03-04T16:18:08;2.90;89.50
16814;DHT22;8524;57.650;11.926;2023-03-04T16:20:37;2.90;91.00
16814;DHT22;8524;57.650;11.926;2023-03-04T16:23:08;2.90;91.90
16814;DHT22;8524;57.650;11.926;2023-03-04T16:25:36;2.90;94.30
16814;DHT22;8524;57.650;11.926;2023-03-04T16:28:04;2.90;95.30
16814;DHT22;8524;57.650;11.926;2023-03-04T16:30:32;2.90;96.60